createdAt,value
2017-05-14T00:00:50.332Z,1016.2
2017-05-14T00:01:53.218Z,1016.2
2017-05-14T00:02:55.929Z,1016.3
2017-05-14T00:03:58.777Z,1016.3
2017-05-14T00:05:01.874Z,1016.3
2017-05-14T00:06:04.213Z,1016.3
2017-05-14T00:07:07.060Z,1016.3
2017-05-14T00:08:09.754Z,1016.3
2017-05-14T00:09:12.591Z,1016.3
2017-05-14T00:10:15.721Z,1016.4
2017-05-14T00:11:17.923Z,1016.3
2017-05-14T00:12:20.769Z,1016.3
2017-05-14T00:13:23.611Z,1016.4
2017-05-14T00:14:26.310Z,1016.4
2017-05-14T00:15:29.400Z,1016.4
2017-05-14T00:16:31.738Z,1016.4
2017-05-14T00:17:34.576Z,1016.3
2017-05-14T00:18:37.414Z,1016.4
2017-05-14T00:20:42.963Z,1016.4
2017-05-14T00:22:48.216Z,1016.4
2017-05-14T00:23:50.925Z,1016.4
2017-05-14T00:25:57.037Z,1016.3
2017-05-14T00:26:59.381Z,1016.3
2017-05-14T00:28:02.219Z,1016.4
2017-05-14T00:29:04.560Z,1016.4
2017-05-14T00:30:07.447Z,1016.3
2017-05-14T00:31:10.455Z,1016.3
2017-05-14T00:32:12.791Z,1016.4
2017-05-14T00:33:15.632Z,1016.3
2017-05-14T00:34:18.476Z,1016.3
2017-05-14T00:35:21.186Z,1016.4
2017-05-14T00:36:24.147Z,1016.4
2017-05-14T00:37:26.990Z,1016.3
2017-05-14T00:38:29.331Z,1016.3
2017-05-14T00:39:32.184Z,1016.3
2017-05-14T00:40:35.027Z,1016.3
2017-05-14T00:41:38.120Z,1016.3
2017-05-14T00:42:40.317Z,1016.4
2017-05-14T00:43:43.155Z,1016.4
2017-05-14T00:44:45.999Z,1016.4
2017-05-14T00:46:51.500Z,1016.4
2017-05-14T00:47:53.936Z,1016.4
2017-05-14T00:48:56.777Z,1016.4
2017-05-14T00:49:59.483Z,1016.4
2017-05-14T00:51:02.320Z,1016.5
2017-05-14T00:52:05.327Z,1016.4
2017-05-14T00:53:07.665Z,1016.5
2017-05-14T00:54:10.740Z,1016.5
2017-05-14T00:56:15.992Z,1016.5
2017-05-14T00:57:19.088Z,1016.5
2017-05-14T00:58:21.421Z,1016.5
2017-05-14T00:59:24.258Z,1016.5
2017-05-14T01:00:27.096Z,1016.6
2017-05-14T01:01:29.940Z,1016.5
2017-05-14T01:02:32.580Z,1016.6
2017-05-14T01:03:35.433Z,1016.6
2017-05-14T01:04:37.780Z,1016.6
2017-05-14T01:05:40.621Z,1016.6
2017-05-14T01:06:43.459Z,1016.6
2017-05-14T01:07:46.617Z,1016.6
2017-05-14T01:08:48.962Z,1016.6
2017-05-14T01:09:51.681Z,1016.7
2017-05-14T01:10:54.521Z,1016.7
2017-05-14T01:11:57.224Z,1016.7
2017-05-14T01:13:00.317Z,1016.7
2017-05-14T01:14:02.700Z,1016.7
2017-05-14T01:15:05.541Z,1016.8
2017-05-14T01:16:08.245Z,1016.8
2017-05-14T01:17:10.947Z,1016.8
2017-05-14T01:19:16.441Z,1016.9
2017-05-14T01:20:19.281Z,1016.9
2017-05-14T01:21:21.617Z,1016.9
2017-05-14T01:22:24.462Z,1016.9
2017-05-14T01:23:27.306Z,1017
2017-05-14T01:24:30.264Z,1016.9
2017-05-14T01:25:32.598Z,1016.9
2017-05-14T01:26:35.438Z,1016.9
2017-05-14T01:27:38.285Z,1016.9
2017-05-14T01:28:41.129Z,1017
2017-05-14T01:29:43.769Z,1017
2017-05-14T01:30:46.613Z,1017
2017-05-14T01:31:48.950Z,1017
2017-05-14T01:32:51.790Z,1017
2017-05-14T01:33:54.644Z,1017
2017-05-14T01:34:57.737Z,1017
2017-05-14T01:36:00.087Z,1017
2017-05-14T01:37:02.927Z,1017
2017-05-14T01:38:05.771Z,1017
2017-05-14T01:39:08.476Z,1017
2017-05-14T01:40:11.065Z,1017
2017-05-14T01:41:13.906Z,1017
2017-05-14T01:42:16.485Z,1017
2017-05-14T01:43:19.193Z,1017
2017-05-14T01:44:22.033Z,1017
2017-05-14T01:45:25.174Z,1017.1
2017-05-14T01:46:27.896Z,1017.1
2017-05-14T01:47:30.202Z,1017.1
2017-05-14T01:48:32.775Z,1017.1
2017-05-14T01:49:35.628Z,1017.2
2017-05-14T01:50:38.718Z,1017.1
2017-05-14T01:51:40.926Z,1017.2
2017-05-14T01:52:43.765Z,1017.1
2017-05-14T01:53:46.622Z,1017.1
2017-05-14T01:54:49.463Z,1017.1
2017-05-14T01:55:52.055Z,1017.1
2017-05-14T01:56:54.898Z,1017.1
2017-05-14T01:57:57.279Z,1017.1
2017-05-14T01:59:00.121Z,1017.2
2017-05-14T02:00:02.960Z,1017.2
2017-05-14T02:01:06.057Z,1017.2
2017-05-14T02:02:08.396Z,1017.2
2017-05-14T02:03:11.102Z,1017.2
2017-05-14T02:04:13.942Z,1017.2
2017-05-14T02:06:19.308Z,1017.2
2017-05-14T02:07:22.022Z,1017.2
2017-05-14T02:08:24.864Z,1017.2
2017-05-14T02:09:27.195Z,1017.2
2017-05-14T02:10:30.035Z,1017.2
2017-05-14T02:11:33.132Z,1017.2
2017-05-14T02:12:35.467Z,1017.2
2017-05-14T02:13:38.311Z,1017.2
2017-05-14T02:14:41.148Z,1017.2
2017-05-14T02:15:43.994Z,1017.2
2017-05-14T02:16:46.580Z,1017.2
2017-05-14T02:17:49.419Z,1017.2
2017-05-14T02:18:52.126Z,1017.2
2017-05-14T02:19:54.467Z,1017.2
2017-05-14T02:20:57.309Z,1017.2
2017-05-14T02:22:00.403Z,1017.2
2017-05-14T02:23:02.744Z,1017.2
2017-05-14T02:24:05.586Z,1017.2
2017-05-14T02:25:08.291Z,1017.3
2017-05-14T02:26:10.993Z,1017.3
2017-05-14T02:27:13.816Z,1017.3
2017-05-14T02:28:16.659Z,1017.3
2017-05-14T02:29:19.239Z,1017.4
2017-05-14T02:30:22.082Z,1017.3
2017-05-14T02:31:24.471Z,1017.4
2017-05-14T02:32:27.567Z,1017.3
2017-05-14T02:33:29.902Z,1017.3
2017-05-14T02:34:32.750Z,1017.4
2017-05-14T02:35:35.589Z,1017.4
2017-05-14T02:36:38.464Z,1017.4
2017-05-14T02:37:41.431Z,1017.4
2017-05-14T02:39:46.546Z,1017.5
2017-05-14T02:40:48.925Z,1017.5
2017-05-14T02:41:51.768Z,1017.5
2017-05-14T02:42:54.947Z,1017.5
2017-05-14T02:43:57.292Z,1017.5
2017-05-14T02:45:00.133Z,1017.5
2017-05-14T02:46:02.474Z,1017.5
2017-05-14T02:47:05.326Z,1017.5
2017-05-14T02:48:08.531Z,1017.5
2017-05-14T02:49:11.103Z,1017.5
2017-05-14T02:50:13.448Z,1017.6
2017-05-14T02:51:16.528Z,1017.6
2017-05-14T02:52:18.871Z,1017.6
2017-05-14T02:53:22.028Z,1017.5
2017-05-14T02:54:24.431Z,1017.6
2017-05-14T02:55:27.279Z,1017.6
2017-05-14T02:56:29.680Z,1017.6
2017-05-14T02:57:32.525Z,1017.6
2017-05-14T02:58:35.616Z,1017.6
2017-05-14T02:59:37.965Z,1017.6
2017-05-14T03:00:40.808Z,1017.6
2017-05-14T03:01:43.648Z,1017.6
2017-05-14T03:02:46.489Z,1017.6
2017-05-14T03:03:49.083Z,1017.6
2017-05-14T03:04:51.792Z,1017.6
2017-05-14T03:05:54.182Z,1017.6
2017-05-14T03:06:57.021Z,1017.6
2017-05-14T03:07:59.865Z,1017.6
2017-05-14T03:09:02.962Z,1017.6
2017-05-14T03:10:05.299Z,1017.6
2017-05-14T03:11:08.258Z,1017.6
2017-05-14T03:12:10.967Z,1017.6
2017-05-14T03:13:13.311Z,1017.6
2017-05-14T03:14:16.403Z,1017.6
2017-05-14T03:15:18.754Z,1017.6
2017-05-14T03:16:21.594Z,1017.7
2017-05-14T03:17:24.309Z,1017.6
2017-05-14T03:18:27.017Z,1017.7
2017-05-14T03:19:30.115Z,1017.7
2017-05-14T03:20:32.451Z,1017.7
2017-05-14T03:21:35.394Z,1017.6
2017-05-14T03:22:37.735Z,1017.7
2017-05-14T03:23:40.580Z,1017.7
2017-05-14T03:24:43.680Z,1017.7
2017-05-14T03:25:46.022Z,1017.7
2017-05-14T03:26:48.872Z,1017.7
2017-05-14T03:27:51.714Z,1017.7
2017-05-14T03:28:54.112Z,1017.8
2017-05-14T03:29:57.256Z,1017.7
2017-05-14T03:30:59.597Z,1017.7
2017-05-14T03:32:02.436Z,1017.7
2017-05-14T03:33:05.280Z,1017.8
2017-05-14T03:34:07.780Z,1017.8
2017-05-14T03:35:10.738Z,1017.7
2017-05-14T03:36:13.078Z,1017.7
2017-05-14T03:37:15.917Z,1017.8
2017-05-14T03:38:18.858Z,1017.8
2017-05-14T03:39:21.708Z,1017.9
2017-05-14T03:40:24.387Z,1017.9
2017-05-14T03:41:26.728Z,1017.9
2017-05-14T03:42:29.439Z,1017.9
2017-05-14T03:43:32.280Z,1017.9
2017-05-14T03:44:35.123Z,1017.9
2017-05-14T03:45:38.270Z,1017.9
2017-05-14T03:46:40.606Z,1018
2017-05-14T03:47:43.457Z,1018
2017-05-14T03:48:45.801Z,1018
2017-05-14T03:49:48.648Z,1018
2017-05-14T03:50:51.737Z,1018
2017-05-14T03:51:54.080Z,1018
2017-05-14T03:52:56.929Z,1018
2017-05-14T03:53:59.772Z,1018
2017-05-14T03:55:02.109Z,1018.1
2017-05-14T03:56:05.115Z,1018.1
2017-05-14T03:57:07.453Z,1018.1
2017-05-14T03:58:10.295Z,1018.1
2017-05-14T03:59:13.138Z,1018.2
2017-05-14T04:00:15.977Z,1018.1
2017-05-14T04:01:18.929Z,1018.2
2017-05-14T04:02:21.271Z,1018.2
2017-05-14T04:03:24.115Z,1018.3
2017-05-14T04:04:26.826Z,1018.4
2017-05-14T04:05:29.705Z,1018.4
2017-05-14T04:06:32.304Z,1018.4
2017-05-14T04:08:37.549Z,1018.3
2017-05-14T04:09:40.395Z,1018.3
2017-05-14T04:10:43.161Z,1018.3
2017-05-14T04:11:46.308Z,1018.3
2017-05-14T04:12:48.649Z,1018.3
2017-05-14T04:13:51.503Z,1018.4
2017-05-14T04:14:54.357Z,1018.5
2017-05-14T04:15:56.697Z,1018.5
2017-05-14T04:16:59.794Z,1018.5
2017-05-14T04:18:02.634Z,1018.4
2017-05-14T04:19:04.970Z,1018.4
2017-05-14T04:20:07.817Z,1018.4
2017-05-14T04:21:10.526Z,1018.4
2017-05-14T04:22:13.612Z,1018.5
2017-05-14T04:24:19.092Z,1018.4
2017-05-14T04:25:21.442Z,1018.4
2017-05-14T04:26:24.285Z,1018.3
2017-05-14T04:27:27.377Z,1018.3
2017-05-14T04:28:29.729Z,1018.3
2017-05-14T04:30:35.476Z,1018.4
2017-05-14T04:31:38.313Z,1018.4
2017-05-14T04:32:41.406Z,1018.5
2017-05-14T04:33:43.749Z,1018.4
2017-05-14T04:34:46.593Z,1018.4
2017-05-14T04:35:49.433Z,1018.4
2017-05-14T04:36:51.782Z,1018.4
2017-05-14T04:37:54.929Z,1018.4
2017-05-14T04:38:57.314Z,1018.4
2017-05-14T04:40:00.211Z,1018.3
2017-05-14T04:41:03.052Z,1018.4
2017-05-14T04:42:05.895Z,1018.4
2017-05-14T04:43:08.717Z,1018.4
2017-05-14T04:44:11.432Z,1018.5
2017-05-14T04:45:13.781Z,1018.5
2017-05-14T04:46:16.493Z,1018.6
2017-05-14T04:47:19.337Z,1018.6
2017-05-14T04:48:22.488Z,1018.6
2017-05-14T04:49:24.829Z,1018.6
2017-05-14T04:50:27.685Z,1018.5
2017-05-14T04:51:30.389Z,1018.5
2017-05-14T04:52:33.229Z,1018.6
2017-05-14T04:53:36.321Z,1018.6
2017-05-14T04:54:38.523Z,1018.6
2017-05-14T04:55:41.396Z,1018.6
2017-05-14T04:56:44.247Z,1018.6
2017-05-14T04:57:47.091Z,1018.6
2017-05-14T04:58:50.058Z,1018.6
2017-05-14T04:59:52.262Z,1018.6
2017-05-14T05:00:55.103Z,1018.6
2017-05-14T05:01:57.943Z,1018.6
2017-05-14T05:03:00.793Z,1018.6
2017-05-14T05:04:03.888Z,1018.6
2017-05-14T05:05:06.232Z,1018.6
2017-05-14T05:06:09.075Z,1018.6
2017-05-14T05:07:11.920Z,1018.6
2017-05-14T05:08:14.261Z,1018.6
2017-05-14T05:09:17.408Z,1018.6
2017-05-14T05:10:19.745Z,1018.6
2017-05-14T05:11:22.585Z,1018.7
2017-05-14T05:12:25.436Z,1018.7
2017-05-14T05:13:28.282Z,1018.7
2017-05-14T05:14:31.430Z,1018.7
2017-05-14T05:15:33.770Z,1018.7
2017-05-14T05:16:36.482Z,1018.7
2017-05-14T05:17:39.326Z,1018.7
2017-05-14T05:18:42.033Z,1018.7
2017-05-14T05:19:45.128Z,1018.8
2017-05-14T05:20:47.474Z,1018.8
2017-05-14T05:21:50.314Z,1018.9
2017-05-14T05:22:53.155Z,1018.9
2017-05-14T05:23:55.859Z,1018.9
2017-05-14T05:24:59.003Z,1018.9
2017-05-14T05:26:01.339Z,1018.9
2017-05-14T05:27:04.187Z,1018.9
2017-05-14T05:28:06.901Z,1018.8
2017-05-14T05:29:09.612Z,1018.8
2017-05-14T05:30:12.760Z,1018.8
2017-05-14T05:31:15.100Z,1018.8
2017-05-14T05:32:17.945Z,1018.8
2017-05-14T05:34:23.192Z,1018.8
2017-05-14T05:35:26.201Z,1018.7
2017-05-14T05:36:29.088Z,1018.8
2017-05-14T05:37:31.439Z,1018.8
2017-05-14T05:38:34.650Z,1018.8
2017-05-14T05:39:36.997Z,1018.8
2017-05-14T05:40:40.093Z,1018.9
2017-05-14T05:41:42.936Z,1018.9
2017-05-14T05:42:45.646Z,1018.9
2017-05-14T05:43:48.351Z,1018.9
2017-05-14T05:44:51.193Z,1018.9
2017-05-14T05:45:53.790Z,1018.9
2017-05-14T05:46:56.637Z,1018.9
2017-05-14T05:47:59.486Z,1018.9
2017-05-14T05:49:02.327Z,1018.9
2017-05-14T05:50:04.643Z,1018.9
2017-05-14T05:51:07.744Z,1018.9
2017-05-14T05:52:10.317Z,1019
2017-05-14T05:53:13.158Z,1019
2017-05-14T05:54:16.004Z,1019
2017-05-14T05:55:18.855Z,1019
2017-05-14T05:56:21.945Z,1019
2017-05-14T05:57:24.284Z,1019.1
2017-05-14T05:58:27.132Z,1019.1
2017-05-14T05:59:29.976Z,1019.1
2017-05-14T06:00:32.813Z,1019.1
2017-05-14T06:01:35.770Z,1019
2017-05-14T06:02:38.121Z,1019.1
2017-05-14T06:03:40.968Z,1019
2017-05-14T06:04:43.809Z,1019.1
2017-05-14T06:05:46.519Z,1019.1
2017-05-14T06:06:49.613Z,1019.1
2017-05-14T06:07:51.957Z,1019.1
2017-05-14T06:08:54.802Z,1019.1
2017-05-14T06:09:57.655Z,1019.2
2017-05-14T06:11:00.499Z,1019.2
2017-05-14T06:12:03.651Z,1019.2
2017-05-14T06:13:05.991Z,1019.2
2017-05-14T06:14:08.836Z,1019.2
2017-05-14T06:15:11.545Z,1019.2
2017-05-14T06:16:14.385Z,1019.2
2017-05-14T06:17:17.483Z,1019.2
2017-05-14T06:18:20.333Z,1019.2
2017-05-14T06:19:22.675Z,1019.3
2017-05-14T06:20:25.515Z,1019.2
2017-05-14T06:21:28.353Z,1019.3
2017-05-14T06:22:31.494Z,1019.4
2017-05-14T06:23:34.203Z,1019.4
2017-05-14T06:24:37.052Z,1019.3
2017-05-14T06:25:39.892Z,1019.3
2017-05-14T06:26:42.230Z,1019.4
2017-05-14T06:27:45.322Z,1019.4
2017-05-14T06:28:48.172Z,1019.4
2017-05-14T06:29:51.013Z,1019.5
2017-05-14T06:30:53.858Z,1019.4
2017-05-14T06:31:56.568Z,1019.4
2017-05-14T06:32:59.715Z,1019.5
2017-05-14T06:34:02.113Z,1019.4
2017-05-14T06:35:04.957Z,1019.4
2017-05-14T06:36:07.795Z,1019.4
2017-05-14T06:37:10.371Z,1019.4
2017-05-14T06:38:13.467Z,1019.4
2017-05-14T06:39:16.305Z,1019.4
2017-05-14T06:40:19.010Z,1019.4
2017-05-14T06:41:21.853Z,1019.5
2017-05-14T06:42:24.698Z,1019.5
2017-05-14T06:43:27.789Z,1019.5
2017-05-14T06:44:30.135Z,1019.5
2017-05-14T06:45:32.979Z,1019.5
2017-05-14T06:47:38.729Z,1019.6
2017-05-14T06:48:41.873Z,1019.6
2017-05-14T06:50:47.221Z,1019.6
2017-05-14T06:51:50.078Z,1019.6
2017-05-14T06:52:52.787Z,1019.6
2017-05-14T06:53:55.876Z,1019.7
2017-05-14T06:54:58.215Z,1019.6
2017-05-14T06:56:01.058Z,1019.6
2017-05-14T06:57:03.901Z,1019.6
2017-05-14T06:58:06.621Z,1019.6
2017-05-14T06:59:09.633Z,1019.7
2017-05-14T07:00:12.471Z,1019.7
2017-05-14T07:01:15.321Z,1019.7
2017-05-14T07:02:17.889Z,1019.7
2017-05-14T07:03:20.732Z,1019.7
2017-05-14T07:04:23.824Z,1019.7
2017-05-14T07:05:26.667Z,1019.7
2017-05-14T07:06:29.008Z,1019.8
2017-05-14T07:07:32.257Z,1019.7
2017-05-14T07:08:35.104Z,1019.8
2017-05-14T07:09:38.251Z,1019.8
2017-05-14T07:10:40.588Z,1019.8
2017-05-14T07:11:43.429Z,1019.8
2017-05-14T07:12:46.264Z,1019.8
2017-05-14T07:13:48.837Z,1019.9
2017-05-14T07:14:51.928Z,1019.9
2017-05-14T07:15:54.767Z,1019.9
2017-05-14T07:16:57.610Z,1019.9
2017-05-14T07:18:00.457Z,1019.9
2017-05-14T07:19:03.170Z,1019.9
2017-05-14T07:20:06.267Z,1019.9
2017-05-14T07:21:08.602Z,1019.9
2017-05-14T07:22:11.821Z,1019.9
2017-05-14T07:23:14.204Z,1019.9
2017-05-14T07:24:17.286Z,1019.9
2017-05-14T07:25:20.381Z,1019.9
2017-05-14T07:26:22.725Z,1020
2017-05-14T07:27:25.570Z,1020
2017-05-14T07:28:28.415Z,1020
2017-05-14T07:29:31.259Z,1020
2017-05-14T07:30:34.770Z,1020.1
2017-05-14T07:31:37.108Z,1020
2017-05-14T07:32:39.949Z,1020.1
2017-05-14T07:33:42.793Z,1020.1
2017-05-14T07:34:45.683Z,1020.1
2017-05-14T07:35:48.777Z,1020.1
2017-05-14T07:36:51.123Z,1020.1
2017-05-14T07:37:54.471Z,1020.1
2017-05-14T07:38:57.312Z,1020.1
2017-05-14T07:40:00.154Z,1020.2
2017-05-14T07:41:03.299Z,1020.2
2017-05-14T07:42:05.639Z,1020.3
2017-05-14T07:43:08.480Z,1020.3
2017-05-14T07:44:11.557Z,1020.3
2017-05-14T07:45:14.267Z,1020.3
2017-05-14T07:46:17.729Z,1020.3
2017-05-14T07:47:20.075Z,1020.3
2017-05-14T07:48:23.420Z,1020.3
2017-05-14T07:49:26.261Z,1020.3
2017-05-14T07:50:28.971Z,1020.3
2017-05-14T07:51:32.068Z,1020.3
2017-05-14T07:52:34.915Z,1020.3
2017-05-14T07:53:37.622Z,1020.3
2017-05-14T07:54:40.463Z,1020.4
2017-05-14T07:55:43.810Z,1020.5
2017-05-14T07:57:49.811Z,1020.5
2017-05-14T07:58:52.153Z,1020.5
2017-05-14T07:59:55.043Z,1020.4
2017-05-14T08:00:58.388Z,1020.5
2017-05-14T08:02:01.093Z,1020.5
2017-05-14T08:03:04.306Z,1020.5
2017-05-14T08:04:07.212Z,1020.5
2017-05-14T08:05:09.863Z,1020.5
2017-05-14T08:06:12.788Z,1020.5
2017-05-14T08:07:15.648Z,1020.5
2017-05-14T08:08:18.963Z,1020.5
2017-05-14T08:09:21.846Z,1020.5
2017-05-14T08:10:24.752Z,1020.5
2017-05-14T08:11:27.385Z,1020.5
2017-05-14T08:12:30.272Z,1020.5
2017-05-14T08:13:33.562Z,1020.6
2017-05-14T08:14:36.571Z,1020.6
2017-05-14T08:15:39.119Z,1020.6
2017-05-14T08:16:42.202Z,1020.6
2017-05-14T08:17:45.067Z,1020.6
2017-05-14T08:18:48.175Z,1020.6
2017-05-14T08:19:51.004Z,1020.6
2017-05-14T08:20:53.718Z,1020.6
2017-05-14T08:21:56.862Z,1020.6
2017-05-14T08:22:59.624Z,1020.7
2017-05-14T08:24:03.193Z,1020.7
2017-05-14T08:25:05.682Z,1020.8
2017-05-14T08:26:08.615Z,1020.8
2017-05-14T08:27:11.706Z,1020.8
2017-05-14T08:28:14.684Z,1020.8
2017-05-14T08:29:17.697Z,1020.8
2017-05-14T08:30:20.637Z,1020.7
2017-05-14T08:31:23.315Z,1020.7
2017-05-14T08:32:26.318Z,1020.8
2017-05-14T08:35:35.324Z,1020.8
2017-05-14T08:36:38.448Z,1020.8
2017-05-14T08:37:41.204Z,1020.8
2017-05-14T08:38:43.942Z,1020.8
2017-05-14T08:39:47.087Z,1020.9
2017-05-14T08:40:50.363Z,1020.8
2017-05-14T08:41:53.098Z,1020.8
2017-05-14T08:42:56.277Z,1020.8
2017-05-14T08:43:59.163Z,1020.8
2017-05-14T08:45:01.881Z,1020.9
2017-05-14T08:47:08.603Z,1020.9
2017-05-14T08:48:11.118Z,1020.9
2017-05-14T08:49:14.058Z,1020.9
2017-05-14T08:50:16.839Z,1021
2017-05-14T08:51:19.998Z,1021
2017-05-14T08:52:23.179Z,1021
2017-05-14T08:53:26.064Z,1021
2017-05-14T08:54:28.938Z,1021
2017-05-14T08:55:31.811Z,1021
2017-05-14T08:56:35.078Z,1021.1
2017-05-14T08:57:38.108Z,1021
2017-05-14T08:58:40.716Z,1021
2017-05-14T08:59:43.834Z,1021
2017-05-14T09:00:46.951Z,1021
2017-05-14T09:01:49.942Z,1021
2017-05-14T09:02:52.880Z,1021.1
2017-05-14T09:03:56.004Z,1021.1
2017-05-14T09:04:58.625Z,1021.1
2017-05-14T09:06:01.629Z,1021.1
2017-05-14T09:07:04.660Z,1021.2
2017-05-14T09:08:07.856Z,1021.2
2017-05-14T09:09:10.727Z,1021.2
2017-05-14T09:10:13.463Z,1021.2
2017-05-14T09:11:16.353Z,1021.2
2017-05-14T09:12:19.218Z,1021.2
2017-05-14T09:14:25.696Z,1021.3
2017-05-14T09:15:28.066Z,1021.3
2017-05-14T09:16:31.245Z,1021.3
2017-05-14T09:17:33.870Z,1021.3
2017-05-14T09:18:36.780Z,1021.3
2017-05-14T09:19:39.970Z,1021.3
2017-05-14T09:20:42.758Z,1021.3
2017-05-14T09:21:45.673Z,1021.4
2017-05-14T09:22:48.519Z,1021.4
2017-05-14T09:23:51.409Z,1021.4
2017-05-14T09:24:54.503Z,1021.4
2017-05-14T09:25:57.342Z,1021.4
2017-05-14T09:27:00.191Z,1021.4
2017-05-14T09:28:03.037Z,1021.4
2017-05-14T09:29:05.881Z,1021.4
2017-05-14T09:30:08.980Z,1021.5
2017-05-14T09:31:11.827Z,1021.4
2017-05-14T09:32:14.728Z,1021.5
2017-05-14T09:33:17.572Z,1021.4
2017-05-14T09:34:20.424Z,1021.5
2017-05-14T09:35:23.522Z,1021.5
2017-05-14T09:36:26.227Z,1021.5
2017-05-14T09:37:29.065Z,1021.5
2017-05-14T09:38:31.773Z,1021.5
2017-05-14T09:39:34.612Z,1021.5
2017-05-14T09:40:37.709Z,1021.5
2017-05-14T09:41:40.283Z,1021.5
2017-05-14T09:42:43.630Z,1021.5
2017-05-14T09:43:46.210Z,1021.5
2017-05-14T09:44:49.055Z,1021.5
2017-05-14T09:45:52.202Z,1021.5
2017-05-14T09:46:55.050Z,1021.5
2017-05-14T09:47:57.763Z,1021.5
2017-05-14T09:49:00.475Z,1021.5
2017-05-14T09:50:03.318Z,1021.6
2017-05-14T09:51:06.331Z,1021.6
2017-05-14T09:52:09.171Z,1021.6
2017-05-14T09:53:11.877Z,1021.6
2017-05-14T09:54:14.587Z,1021.5
2017-05-14T09:55:17.425Z,1021.6
2017-05-14T09:56:20.525Z,1021.6
2017-05-14T09:57:23.368Z,1021.6
2017-05-14T09:58:26.077Z,1021.6
2017-05-14T10:00:31.893Z,1021.6
2017-05-14T10:01:34.906Z,1021.6
2017-05-14T10:02:37.612Z,1021.6
2017-05-14T10:03:40.189Z,1021.6
2017-05-14T10:04:43.033Z,1021.6
2017-05-14T10:05:45.874Z,1021.7
2017-05-14T10:06:48.973Z,1021.7
2017-05-14T10:07:51.816Z,1021.7
2017-05-14T10:08:54.656Z,1021.7
2017-05-14T10:09:57.732Z,1021.7
2017-05-14T10:11:00.131Z,1021.7
2017-05-14T10:12:03.228Z,1021.7
2017-05-14T10:13:05.802Z,1021.7
2017-05-14T10:14:08.644Z,1021.7
2017-05-14T10:15:11.856Z,1021.7
2017-05-14T10:17:17.358Z,1021.7
2017-05-14T10:18:20.104Z,1021.7
2017-05-14T10:19:22.942Z,1021.7
2017-05-14T10:20:25.784Z,1021.7
2017-05-14T10:21:28.491Z,1021.7
2017-05-14T10:22:31.586Z,1021.7
2017-05-14T10:23:34.433Z,1021.7
2017-05-14T10:24:37.275Z,1021.7
2017-05-14T10:25:40.160Z,1021.7
2017-05-14T10:26:42.865Z,1021.8
2017-05-14T10:27:45.972Z,1021.7
2017-05-14T10:28:48.316Z,1021.8
2017-05-14T10:29:51.214Z,1021.7
2017-05-14T10:30:54.121Z,1021.8
2017-05-14T10:31:56.966Z,1021.8
2017-05-14T10:33:00.063Z,1021.8
2017-05-14T10:34:02.404Z,1021.8
2017-05-14T10:35:05.251Z,1021.8
2017-05-14T10:36:08.110Z,1021.8
2017-05-14T10:37:11.182Z,1021.8
2017-05-14T10:38:14.331Z,1021.8
2017-05-14T10:39:16.672Z,1021.8
2017-05-14T10:40:19.519Z,1021.8
2017-05-14T10:41:22.364Z,1021.8
2017-05-14T10:42:25.248Z,1021.8
2017-05-14T10:44:30.869Z,1021.8
2017-05-14T10:45:33.714Z,1021.9
2017-05-14T10:46:36.418Z,1021.8
2017-05-14T10:47:39.129Z,1021.8
2017-05-14T10:48:41.838Z,1021.8
2017-05-14T10:49:44.931Z,1021.8
2017-05-14T10:50:47.774Z,1021.8
2017-05-14T10:51:50.616Z,1021.8
2017-05-14T10:52:53.462Z,1021.9
2017-05-14T10:53:56.305Z,1021.8
2017-05-14T10:54:59.448Z,1021.8
2017-05-14T10:56:01.834Z,1021.8
2017-05-14T10:57:04.688Z,1021.9
2017-05-14T10:58:07.543Z,1021.9
2017-05-14T10:59:10.251Z,1021.8
2017-05-14T11:00:13.208Z,1021.9
2017-05-14T11:01:16.051Z,1021.9
2017-05-14T11:02:18.764Z,1021.9
2017-05-14T11:03:21.609Z,1021.9
2017-05-14T11:04:24.488Z,1021.9
2017-05-14T11:05:27.465Z,1022
2017-05-14T11:06:29.857Z,1021.9
2017-05-14T11:07:33.073Z,1021.9
2017-05-14T11:08:35.918Z,1022
2017-05-14T11:09:38.551Z,1021.9
2017-05-14T11:11:44.609Z,1021.9
2017-05-14T11:12:46.952Z,1022
2017-05-14T11:13:49.817Z,1022
2017-05-14T11:14:52.658Z,1022
2017-05-14T11:15:55.368Z,1022
2017-05-14T11:16:58.330Z,1021.9
2017-05-14T11:18:01.175Z,1022
2017-05-14T11:19:04.020Z,1022
2017-05-14T11:21:09.779Z,1022
2017-05-14T11:22:12.877Z,1022
2017-05-14T11:23:15.217Z,1022
2017-05-14T11:24:17.925Z,1022
2017-05-14T11:25:20.768Z,1022
2017-05-14T11:26:23.619Z,1022
2017-05-14T11:27:26.765Z,1022
2017-05-14T11:28:29.614Z,1022
2017-05-14T11:29:32.461Z,1022
2017-05-14T11:30:34.806Z,1022
2017-05-14T11:31:37.715Z,1022
2017-05-14T11:32:40.870Z,1022
2017-05-14T11:34:46.129Z,1022
2017-05-14T11:35:49.357Z,1022
2017-05-14T11:36:52.205Z,1022
2017-05-14T11:37:55.168Z,1022
2017-05-14T11:38:57.371Z,1022
2017-05-14T11:40:00.215Z,1022
2017-05-14T11:41:03.061Z,1022
2017-05-14T11:42:05.906Z,1021.9
2017-05-14T11:43:08.923Z,1021.9
2017-05-14T11:44:11.638Z,1021.9
2017-05-14T11:45:14.484Z,1022
2017-05-14T11:46:17.329Z,1021.9
2017-05-14T11:47:20.182Z,1021.9
2017-05-14T11:48:23.334Z,1021.9
2017-05-14T11:49:25.676Z,1022
2017-05-14T11:50:28.385Z,1022
2017-05-14T11:51:31.231Z,1021.9
2017-05-14T11:52:34.076Z,1022
2017-05-14T11:53:37.173Z,1022
2017-05-14T11:54:39.884Z,1022
2017-05-14T11:55:42.593Z,1022.2
2017-05-14T11:56:45.435Z,1022
2017-05-14T11:57:48.284Z,1022.2
2017-05-14T11:58:51.113Z,1022.2
2017-05-14T11:59:53.958Z,1022.2
2017-05-14T12:01:59.710Z,1022.2
2017-05-14T12:03:02.554Z,1022.2
2017-05-14T12:04:05.152Z,1022.2
2017-05-14T12:05:07.995Z,1022.2
2017-05-14T12:06:10.707Z,1022.2
2017-05-14T12:07:13.787Z,1022.2
2017-05-14T12:08:16.626Z,1022.2
2017-05-14T12:09:19.222Z,1022.2
2017-05-14T12:10:22.072Z,1022.2
2017-05-14T12:11:24.918Z,1022.2
2017-05-14T12:12:27.764Z,1022.2
2017-05-14T12:13:30.613Z,1022.2
2017-05-14T12:14:33.717Z,1022.3
2017-05-14T12:15:36.133Z,1022.3
2017-05-14T12:16:38.979Z,1022.2
2017-05-14T12:17:41.826Z,1022.3
2017-05-14T12:18:44.672Z,1022.2
2017-05-14T12:19:47.819Z,1022.2
2017-05-14T12:20:50.165Z,1022.2
2017-05-14T12:21:53.015Z,1022.3
2017-05-14T12:22:55.860Z,1022.3
2017-05-14T12:23:58.570Z,1022.3
2017-05-14T12:25:01.671Z,1022.3
2017-05-14T12:26:04.383Z,1022.3
2017-05-14T12:27:07.226Z,1022.4
2017-05-14T12:28:09.660Z,1022.4
2017-05-14T12:29:12.505Z,1022.3
2017-05-14T12:30:15.603Z,1022.3
2017-05-14T12:31:18.312Z,1022.3
2017-05-14T12:32:21.024Z,1022.3
2017-05-14T12:33:23.920Z,1022.4
2017-05-14T12:34:26.768Z,1022.3
2017-05-14T12:35:29.868Z,1022.4
2017-05-14T12:36:32.206Z,1022.3
2017-05-14T12:37:35.051Z,1022.4
2017-05-14T12:38:37.895Z,1022.4
2017-05-14T12:39:40.743Z,1022.3
2017-05-14T12:41:46.617Z,1022.4
2017-05-14T12:42:49.377Z,1022.3
2017-05-14T12:43:52.225Z,1022.3
2017-05-14T12:44:54.930Z,1022.3
2017-05-14T12:45:57.632Z,1022.3
2017-05-14T12:47:00.726Z,1022.4
2017-05-14T12:48:03.574Z,1022.3
2017-05-14T12:49:06.415Z,1022.4
2017-05-14T12:50:09.123Z,1022.4
2017-05-14T12:51:11.873Z,1022.4
2017-05-14T12:52:14.973Z,1022.4
2017-05-14T12:53:17.742Z,1022.4
2017-05-14T12:54:20.450Z,1022.5
2017-05-14T12:55:23.306Z,1022.5
2017-05-14T12:56:26.149Z,1022.5
2017-05-14T12:57:29.354Z,1022.5
2017-05-14T12:58:31.692Z,1022.5
2017-05-14T12:59:34.537Z,1022.5
2017-05-14T13:00:37.379Z,1022.5
2017-05-14T13:01:40.221Z,1022.5
2017-05-14T13:02:43.238Z,1022.5
2017-05-14T13:03:46.086Z,1022.4
2017-05-14T13:04:48.935Z,1022.5
2017-05-14T13:05:51.780Z,1022.5
2017-05-14T13:06:54.493Z,1022.5
2017-05-14T13:07:57.455Z,1022.5
2017-05-14T13:09:00.164Z,1022.5
2017-05-14T13:10:03.007Z,1022.4
2017-05-14T13:11:06.086Z,1022.5
2017-05-14T13:12:08.927Z,1022.5
2017-05-14T13:13:12.020Z,1022.5
2017-05-14T13:14:14.220Z,1022.6
2017-05-14T13:15:17.428Z,1022.5
2017-05-14T13:16:20.275Z,1022.5
2017-05-14T13:17:23.133Z,1022.4
2017-05-14T13:18:25.726Z,1022.5
2017-05-14T13:19:28.574Z,1022.4
2017-05-14T13:20:31.416Z,1022.5
2017-05-14T13:21:34.262Z,1022.5
2017-05-14T13:22:37.147Z,1022.5
2017-05-14T13:23:40.250Z,1022.5
2017-05-14T13:24:42.955Z,1022.5
2017-05-14T13:25:45.802Z,1022.4
2017-05-14T13:26:48.140Z,1022.5
2017-05-14T13:27:51.352Z,1022.4
2017-05-14T13:28:54.446Z,1022.5
2017-05-14T13:29:56.657Z,1022.5
2017-05-14T13:30:59.873Z,1022.5
2017-05-14T13:32:02.720Z,1022.5
2017-05-14T13:33:05.565Z,1022.4
2017-05-14T13:34:08.665Z,1022.4
2017-05-14T13:36:13.768Z,1022.4
2017-05-14T13:37:16.616Z,1022.4
2017-05-14T13:38:19.327Z,1022.4